• Join FlightAware (Why Join?)
  • Login
  • US Flag 
08:48AM EDT


 

Airport Tracker/Info


-or-


 

Live Flight TrackerFlight Track Log ✈ DLX119 ✈ 29-Aug-2013 ✈ KVNY - KSQL

Flight Track Log - Related Links

Times and Time Zones

All times are in EDT time to prevent confusion due to time zone crossing. See the DLX119 flight status page for this flight to view local times or setup timezone preferences in your user account.

Time Position Orientation Groundspeed Altitude Reporting Facility
EDT Latitude Longitude Course Direction KTS MPH feet Rate Location/Type
07:53PM 34.1667 -118.5000 318° Northwest 151 174 3,000  Level Southern California TRACON
07:54PM 34.1667 -118.5500 270° West 156 180 4,800 1,200 Climbing Southern California TRACON
07:55PM 34.2000 -118.5833 320° Northwest 154 177 5,300 960 Climbing Southern California TRACON
07:56PM 34.2333 -118.6167 320° Northwest 177 204 6,800 1,500 Climbing Southern California TRACON
07:57PM 34.2667 -118.6667 309° West 190 219 8,500 1,560 Climbing Southern California TRACON
07:58PM 34.4767 -118.7778 318° Northwest  Level Estimated
07:58PM 34.3217 -118.7156 324° Northwest 191 220 10,600  Level Los Angeles Center
07:59PM 34.3594 -118.7567 318° Northwest 185 213 12,200 1,260 Climbing Los Angeles Center
08:00PM 34.3911 -118.7906 319° Northwest 187 215 13,300 1,260 Climbing Los Angeles Center
08:01PM 34.4544 -118.8597 318° Northwest 221 254 14,900 1,380 Climbing Los Angeles Center
08:02PM 34.5008 -118.9114 317° Northwest 225 259 16,200 1,020 Climbing Los Angeles Center
08:03PM 34.5472 -118.9647 317° Northwest 231 266 17,100 360 Climbing Los Angeles Center
08:04PM 34.5992 -119.0189 319° Northwest 249 287 17,000  Descending Los Angeles Center
08:05PM 34.6511 -119.0811 315° West 260 299 17,100 -60 Climbing Los Angeles Center
08:06PM 34.7150 -119.1506 318° Northwest 263 303 16,900 -120 Descending Los Angeles Center
08:08PM 34.7811 -119.2214 319° Northwest 263 303 16,900  Level Los Angeles Center
08:09PM 34.8347 -119.2819 317° Northwest 263 303 17,000 720 Climbing Los Angeles Center
08:10PM 34.8831 -119.3369 317° Northwest 241 277 18,500 1,080 Climbing Los Angeles Center
08:11PM 34.9281 -119.3886 317° Northwest 225 259 19,300 960 Climbing Los Angeles Center
08:12PM 34.9836 -119.4497 318° Northwest 224 258 20,500 960 Climbing Los Angeles Center
08:13PM 35.0303 -119.5011 318° Northwest 225 259 21,300 720 Climbing Los Angeles Center
08:14PM 35.0767 -119.5539 317° Northwest 228 262 22,000 300 Climbing Los Angeles Center
08:15PM 35.1269 -119.6106 317° Northwest 241 277 22,000  Level Los Angeles Center
08:16PM 35.1811 -119.6717 317° Northwest 258 297 22,000  Level Los Angeles Center
08:17PM 35.2358 -119.7331 318° Northwest 265 305 22,000  Level Los Angeles Center
08:18PM 35.3000 -119.8069 317° Northwest 265 305 22,000  Level Los Angeles Center
08:19PM 35.3547 -119.8678 318° Northwest 266 306 22,000  Level Los Angeles Center
08:20PM 35.4086 -119.9294 317° Northwest 267 307 22,000  Level Los Angeles Center
08:21PM 35.4631 -119.9914 317° Northwest 267 307 22,000  Level Los Angeles Center
08:22PM 35.5172 -120.0539 317° Northwest 269 310 22,000  Level Los Angeles Center
08:23PM 35.5831 -120.1294 317° Northwest 272 313 22,000  Level Los Angeles Center
08:24PM 35.6481 -120.2044 317° Northwest 270 311 22,000  Level Oakland Center
08:25PM 35.7017 -120.2678 316° Northwest 269 310 22,000  Level Oakland Center
08:26PM 35.7561 -120.3303 317° Northwest 269 310 22,000 -300 Level Oakland Center
08:27PM 35.8125 -120.3953 317° Northwest 278 320 21,400 -540 Descending Oakland Center
08:28PM 35.8736 -120.4578 320° Northwest 285 328 20,900 -540 Descending Oakland Center
08:29PM 35.9344 -120.5206 320° Northwest 286 329 20,400 -600 Descending Oakland Center
08:30PM 36.0069 -120.5967 320° Northwest 287 330 19,700 -600 Descending Oakland Center
08:31PM 36.0689 -120.6597 321° Northwest 288 331 19,200 -540 Descending Oakland Center
08:32PM 36.1289 -120.7233 319° Northwest 285 328 18,600 -600 Descending Oakland Center
08:33PM 36.1894 -120.7878 319° Northwest 287 330 18,000 -540 Descending Oakland Center
08:34PM 36.2494 -120.8514 319° Northwest 285 328 17,500 -540 Descending Oakland Center
08:36PM 36.3092 -120.9136 320° Northwest 282 325 17,000 -540 Descending Oakland Center
08:37PM 36.3644 -120.9817 315° West 279 321 16,500 -660 Descending Oakland Center
08:38PM 36.4208 -121.0503 316° Northwest 284 327 15,700 -780 Descending Oakland Center
08:39PM 36.4883 -121.1303 316° Northwest 281 323 15,000 -600 Descending Oakland Center
08:40PM 36.5442 -121.1950 317° Northwest 277 319 14,500 -540 Descending Oakland Center
08:41PM 36.5989 -121.2628 315° West 277 319 14,000 -540 Descending Oakland Center
08:42PM 36.6539 -121.3292 316° Northwest 277 319 13,400 -660 Descending Oakland Center
08:43PM 36.7100 -121.3964 316° Northwest 277 319 12,700 -660 Descending Oakland Center
08:44PM 36.7642 -121.4611 316° Northwest 272 313 12,100 -600 Descending Oakland Center
08:45PM 36.8211 -121.5317 315° West 274 315 11,500 -600 Descending Oakland Center
08:46PM 36.8739 -121.6000 314° West 274 315 10,900 -600 Descending Oakland Center
08:47PM 36.9286 -121.6653 316° Northwest 273 314 10,300 -660 Descending Oakland Center
08:48PM 36.9933 -121.7428 316° Northwest 269 310 9,600 -600 Descending Oakland Center
08:49PM 37.0458 -121.8069 316° Northwest 266 306 9,100 -540 Descending Oakland Center
08:50PM 37.0978 -121.8703 316° Northwest 262 302 8,500 -600 Descending Oakland Center
08:51PM 37.1500 -121.9167 325° Northwest 263 303 8,100 -540 Descending Northern Cal TRACON
08:52PM 37.1833 -121.9833 302° West 225 259 7,600 -1,200 Descending Northern Cal TRACON
08:53PM 37.2333 -122.0333 321° Northwest 211 243 5,700 -1,380 Descending Northern Cal TRACON
08:54PM 37.2833 -122.0833 321° Northwest 204 235 4,800 -900 Descending Northern Cal TRACON
08:55PM 37.3167 -122.1167 322° Northwest 201 231 3,900 -720 Descending Northern Cal TRACON
08:56PM 37.3667 -122.1500 332° Northwest 185 213 3,500 -780 Descending Northern Cal TRACON
08:57PM 37.4000 -122.1833 322° Northwest 172 198 2,400 -960 Descending Northern Cal TRACON
08:58PM 37.4500 -122.2000 345° North 146 168 1,600 -720 Descending Northern Cal TRACON
08:59PM 37.4833 -122.2167 338° Northwest 114 131 1,000 -660 Descending Northern Cal TRACON
09:00PM 37.5000 -122.2333 322° Northwest 103 119 300 -480 Descending Northern Cal TRACON
09:01PM 37.5167 -122.2500 322° Northwest 93 107 100 -240 Descending Northern Cal TRACON
09:03PM 37.5118 -122.2495 142° Southeast  Level Estimated
09:10PM 37.5119 -122.2495 142° Southeast  Level Estimated